createdAt,value
2019-01-20T00:01:49.089Z,16.97
2019-01-20T00:04:17.696Z,17.30
2019-01-20T00:06:47.532Z,20.27
2019-01-20T00:09:16.369Z,18.63
2019-01-20T00:11:45.023Z,18.47
2019-01-20T00:14:14.096Z,19.03
2019-01-20T00:16:42.765Z,19.00
2019-01-20T00:19:11.757Z,14.47
2019-01-20T00:21:40.909Z,13.37
2019-01-20T00:24:09.714Z,13.13
2019-01-20T00:26:38.484Z,15.33
2019-01-20T00:29:07.150Z,17.73
2019-01-20T00:31:35.763Z,18.10
2019-01-20T00:34:05.081Z,19.53
2019-01-20T00:36:33.799Z,20.50
2019-01-20T00:39:04.523Z,19.07
2019-01-20T00:41:34.197Z,18.70
2019-01-20T00:44:03.546Z,19.52
2019-01-20T00:46:32.538Z,17.13
2019-01-20T00:49:01.262Z,14.83
2019-01-20T00:51:31.798Z,13.93
2019-01-20T00:54:00.761Z,15.57
2019-01-20T00:56:29.460Z,16.43
2019-01-20T00:58:58.149Z,16.40
2019-01-20T01:01:26.849Z,15.53
2019-01-20T01:03:55.609Z,15.47
2019-01-20T01:06:24.813Z,15.53
2019-01-20T01:08:53.458Z,14.83
2019-01-20T01:11:22.217Z,15.13
2019-01-20T01:13:51.903Z,12.90
2019-01-20T01:16:20.418Z,13.20
2019-01-20T01:18:49.559Z,13.00
2019-01-20T01:21:18.208Z,10.63
2019-01-20T01:23:47.173Z,10.27
2019-01-20T01:26:16.088Z,9.33
2019-01-20T01:28:44.750Z,9.93
2019-01-20T01:31:13.904Z,9.47
2019-01-20T01:33:43.001Z,9.50
2019-01-20T01:36:11.665Z,9.10
2019-01-20T01:38:40.577Z,9.73
2019-01-20T01:41:09.512Z,10.67
2019-01-20T01:43:38.137Z,9.87
2019-01-20T01:46:07.116Z,10.80
2019-01-20T01:48:35.857Z,9.17
2019-01-20T01:51:04.860Z,9.23
2019-01-20T01:53:33.824Z,10.13
2019-01-20T01:56:02.429Z,11.00
2019-01-20T01:58:31.466Z,11.03
2019-01-20T02:00:59.867Z,13.43
2019-01-20T02:03:28.906Z,14.83
2019-01-20T02:05:57.503Z,16.23
2019-01-20T02:08:26.556Z,16.27
2019-01-20T02:10:55.420Z,14.47
2019-01-20T02:13:24.216Z,13.33
2019-01-20T02:15:53.358Z,12.60
2019-01-20T02:18:22.095Z,12.93
2019-01-20T02:20:51.233Z,13.17
2019-01-20T02:23:20.169Z,11.47
2019-01-20T02:25:48.985Z,10.83
2019-01-20T02:28:17.521Z,9.30
2019-01-20T02:30:47.185Z,12.10
2019-01-20T02:33:15.797Z,10.40
2019-01-20T02:35:45.273Z,10.00
2019-01-20T02:38:13.835Z,11.83
2019-01-20T02:40:42.490Z,15.73
2019-01-20T02:43:11.178Z,18.67
2019-01-20T02:45:39.981Z,15.93
2019-01-20T02:48:08.948Z,18.53
2019-01-20T02:50:37.679Z,16.13
2019-01-20T02:53:06.310Z,13.23
2019-01-20T02:55:35.042Z,11.03
2019-01-20T02:58:03.709Z,7.83
2019-01-20T03:00:32.419Z,8.80
2019-01-20T03:03:01.050Z,9.43
2019-01-20T03:05:29.959Z,7.33
2019-01-20T03:07:58.684Z,6.57
2019-01-20T03:10:27.734Z,5.27
2019-01-20T03:12:56.555Z,4.13
2019-01-20T03:15:25.332Z,4.43
2019-01-20T03:17:54.809Z,4.40
2019-01-20T03:20:24.132Z,4.57
2019-01-20T03:22:53.204Z,4.23
2019-01-20T03:25:22.142Z,3.63
2019-01-20T03:27:50.589Z,3.47
2019-01-20T03:30:21.721Z,3.80
2019-01-20T03:32:50.414Z,3.20
2019-01-20T03:35:22.383Z,2.63
2019-01-20T03:37:50.992Z,3.40
2019-01-20T03:40:20.671Z,3.27
2019-01-20T03:42:49.765Z,3.20
2019-01-20T03:45:19.205Z,3.33
2019-01-20T03:47:48.377Z,3.23
2019-01-20T03:50:18.076Z,3.27
2019-01-20T03:52:47.172Z,3.70
2019-01-20T03:55:16.815Z,3.30
2019-01-20T03:57:46.035Z,3.10
2019-01-20T04:00:23.389Z,2.80
2019-01-20T04:02:59.267Z,2.70
2019-01-20T04:05:28.712Z,2.30
2019-01-20T04:07:57.622Z,2.23
2019-01-20T04:10:26.504Z,2.60
2019-01-20T04:12:55.389Z,2.27
2019-01-20T04:15:24.870Z,2.50
2019-01-20T04:17:53.954Z,2.83
2019-01-20T04:20:22.742Z,2.90
2019-01-20T04:22:51.813Z,2.77
2019-01-20T04:25:20.776Z,3.20
2019-01-20T04:27:49.986Z,3.47
2019-01-20T04:30:19.949Z,3.63
2019-01-20T04:32:49.093Z,3.20
2019-01-20T04:35:17.617Z,3.67
2019-01-20T04:37:46.594Z,3.50
2019-01-20T04:40:22.173Z,4.17
2019-01-20T04:42:52.033Z,3.80
2019-01-20T04:45:20.862Z,3.73
2019-01-20T04:47:49.644Z,3.80
2019-01-20T04:50:20.428Z,4.10
2019-01-20T04:52:49.180Z,3.83
2019-01-20T04:55:18.603Z,4.37
2019-01-20T04:57:50.701Z,4.50
2019-01-20T05:00:21.194Z,4.80
2019-01-20T05:02:50.269Z,5.90
2019-01-20T05:05:19.594Z,6.57
2019-01-20T05:07:48.401Z,6.80
2019-01-20T05:10:17.903Z,6.93
2019-01-20T05:12:46.396Z,7.50
2019-01-20T05:15:17.595Z,7.00
2019-01-20T05:17:46.441Z,7.63
2019-01-20T05:20:16.030Z,6.63
2019-01-20T05:22:44.817Z,6.50
2019-01-20T05:25:14.262Z,6.93
2019-01-20T05:27:42.803Z,11.07
2019-01-20T05:30:16.912Z,13.53
2019-01-20T05:32:45.686Z,13.43
2019-01-20T05:35:14.413Z,10.93
2019-01-20T05:37:43.109Z,11.03
2019-01-20T05:40:13.491Z,7.93
2019-01-20T05:42:46.281Z,6.57
2019-01-20T05:45:18.087Z,7.62
2019-01-20T05:47:47.264Z,8.73
2019-01-20T05:50:16.492Z,9.43
2019-01-20T05:52:45.569Z,10.87
2019-01-20T05:55:14.651Z,8.80
2019-01-20T05:57:44.079Z,7.80
2019-01-20T06:00:19.334Z,6.13
2019-01-20T06:02:48.088Z,5.30
2019-01-20T06:05:17.051Z,4.73
2019-01-20T06:07:46.229Z,4.07
2019-01-20T06:10:15.390Z,3.33
2019-01-20T06:12:44.498Z,3.60
2019-01-20T06:15:15.841Z,3.70
2019-01-20T06:17:44.795Z,3.07
2019-01-20T06:20:14.149Z,5.87
2019-01-20T06:22:43.174Z,6.33
2019-01-20T06:25:12.630Z,6.00
2019-01-20T06:27:41.437Z,6.37
2019-01-20T06:30:14.632Z,6.30
2019-01-20T06:32:43.890Z,5.97
2019-01-20T06:35:12.593Z,5.90
2019-01-20T06:37:41.654Z,5.67
2019-01-20T06:40:10.579Z,5.33
2019-01-20T06:42:39.633Z,6.50
2019-01-20T06:45:09.319Z,5.60
2019-01-20T06:47:37.987Z,5.33
2019-01-20T06:50:08.793Z,6.00
2019-01-20T06:52:37.697Z,6.70
2019-01-20T06:55:07.645Z,7.50
2019-01-20T06:57:36.577Z,8.40
2019-01-20T07:00:07.132Z,9.77
2019-01-20T07:02:36.528Z,10.63
2019-01-20T07:05:06.417Z,9.33
2019-01-20T07:07:35.581Z,9.10
2019-01-20T07:10:05.243Z,8.97
2019-01-20T07:12:35.255Z,9.50
2019-01-20T07:15:06.348Z,15.30
2019-01-20T07:17:35.292Z,10.17
2019-01-20T07:20:05.922Z,8.97
2019-01-20T07:22:34.811Z,8.53
2019-01-20T07:25:04.401Z,8.67
2019-01-20T07:27:33.877Z,9.37
2019-01-20T07:30:02.802Z,9.77
2019-01-20T07:32:31.761Z,9.77
2019-01-20T07:35:00.810Z,10.90
2019-01-20T07:37:29.460Z,9.37
2019-01-20T07:39:58.942Z,9.47
2019-01-20T07:42:27.677Z,8.23
2019-01-20T07:44:56.704Z,8.07
2019-01-20T07:47:25.582Z,8.27
2019-01-20T07:49:55.714Z,7.80
2019-01-20T07:52:24.369Z,8.10
2019-01-20T07:54:53.260Z,8.77
2019-01-20T07:57:21.844Z,9.67
2019-01-20T07:59:50.773Z,9.67
2019-01-20T08:02:19.453Z,10.13
2019-01-20T08:04:48.305Z,10.95
2019-01-20T08:07:16.990Z,10.77
2019-01-20T08:09:46.240Z,9.93
2019-01-20T08:12:15.403Z,8.70
2019-01-20T08:14:44.102Z,9.33
2019-01-20T08:17:12.522Z,8.00
2019-01-20T08:19:41.009Z,6.63
2019-01-20T08:22:09.509Z,7.13
2019-01-20T08:24:38.037Z,7.23
2019-01-20T08:27:06.637Z,7.50
2019-01-20T08:29:35.105Z,6.40
2019-01-20T08:32:03.599Z,7.07
2019-01-20T08:34:31.965Z,7.03
2019-01-20T08:37:00.540Z,7.60
2019-01-20T08:39:28.850Z,8.70
2019-01-20T08:41:57.329Z,7.87
2019-01-20T08:44:29.593Z,6.60
2019-01-20T08:47:19.037Z,7.80
2019-01-20T08:49:47.486Z,7.70
2019-01-20T08:52:15.957Z,7.40
2019-01-20T08:54:44.337Z,8.33
2019-01-20T08:57:12.793Z,8.30
2019-01-20T08:59:41.114Z,7.93
2019-01-20T09:02:09.661Z,8.10
2019-01-20T09:04:38.061Z,7.10
2019-01-20T09:07:06.420Z,7.93
2019-01-20T09:09:34.733Z,7.90
2019-01-20T09:12:03.356Z,6.83
2019-01-20T09:14:31.665Z,6.03
2019-01-20T09:17:00.170Z,5.70
2019-01-20T09:19:28.561Z,4.83
2019-01-20T09:21:57.065Z,5.03
2019-01-20T09:24:25.505Z,4.63
2019-01-20T09:26:54.028Z,5.43
2019-01-20T09:29:22.465Z,4.90
2019-01-20T09:31:53.052Z,5.90
2019-01-20T09:34:21.354Z,5.73
2019-01-20T09:36:50.372Z,6.23
2019-01-20T09:39:18.916Z,5.03
2019-01-20T09:41:51.185Z,5.97
2019-01-20T09:44:21.254Z,7.73
2019-01-20T09:46:51.537Z,7.30
2019-01-20T09:49:20.218Z,7.00
2019-01-20T09:51:48.800Z,7.00
2019-01-20T09:54:17.334Z,7.13
2019-01-20T09:56:45.814Z,7.37
2019-01-20T09:59:14.141Z,7.07
2019-01-20T10:01:42.607Z,7.70
2019-01-20T10:04:11.006Z,9.73
2019-01-20T10:06:39.593Z,8.80
2019-01-20T10:09:08.261Z,9.23
2019-01-20T10:11:37.721Z,8.70
2019-01-20T10:14:06.321Z,8.47
2019-01-20T10:16:34.936Z,9.00
2019-01-20T10:19:03.536Z,8.47
2019-01-20T10:21:31.983Z,9.73
2019-01-20T10:24:00.365Z,10.37
2019-01-20T10:26:28.818Z,11.17
2019-01-20T10:28:57.139Z,11.20
2019-01-20T10:31:25.465Z,11.40
2019-01-20T10:33:54.011Z,10.73
2019-01-20T10:36:22.423Z,9.80
2019-01-20T10:38:50.753Z,10.30
2019-01-20T10:41:19.441Z,9.90
2019-01-20T10:43:48.043Z,11.10
2019-01-20T10:46:16.906Z,7.47
2019-01-20T10:48:45.349Z,12.10
2019-01-20T10:51:13.786Z,9.63
2019-01-20T10:53:42.077Z,10.17
2019-01-20T10:56:10.522Z,10.97
2019-01-20T10:58:39.054Z,12.60
2019-01-20T11:01:07.513Z,11.17
2019-01-20T11:03:36.068Z,12.53
2019-01-20T11:06:04.797Z,13.00
2019-01-20T11:08:33.261Z,12.93
2019-01-20T11:11:01.719Z,14.97
2019-01-20T11:13:30.712Z,14.90
2019-01-20T11:15:59.153Z,16.05
2019-01-20T11:18:27.618Z,14.27
2019-01-20T11:20:56.133Z,17.27
2019-01-20T11:23:25.049Z,16.27
2019-01-20T11:25:53.469Z,15.23
2019-01-20T11:28:21.949Z,16.43
2019-01-20T11:30:50.361Z,16.37
2019-01-20T11:33:18.919Z,14.97
2019-01-20T11:35:47.373Z,14.17
2019-01-20T11:38:15.753Z,12.13
2019-01-20T11:40:44.159Z,14.27
2019-01-20T11:43:12.717Z,12.87
2019-01-20T11:45:41.334Z,13.00
2019-01-20T11:48:11.009Z,13.47
2019-01-20T11:50:39.421Z,10.30
2019-01-20T11:53:08.036Z,9.73
2019-01-20T11:55:36.814Z,10.03
2019-01-20T11:58:05.359Z,10.07
2019-01-20T12:00:35.661Z,8.97
2019-01-20T12:03:05.685Z,9.43
2019-01-20T12:05:35.966Z,8.93
2019-01-20T12:08:05.175Z,8.73
2019-01-20T12:10:33.585Z,11.93
2019-01-20T12:13:11.513Z,11.17
2019-01-20T12:15:39.839Z,11.60
2019-01-20T12:18:09.876Z,12.60
2019-01-20T12:20:38.357Z,12.10
2019-01-20T12:23:08.162Z,12.47
2019-01-20T12:25:36.729Z,9.50
2019-01-20T12:28:05.363Z,5.27
2019-01-20T12:30:36.766Z,5.53
2019-01-20T12:33:05.385Z,4.93
2019-01-20T12:35:33.889Z,4.97
2019-01-20T12:38:02.377Z,4.40
2019-01-20T12:40:33.581Z,4.03
2019-01-20T12:43:02.492Z,4.57
2019-01-20T12:45:33.647Z,4.80
2019-01-20T12:48:02.380Z,5.47
2019-01-20T12:50:30.914Z,5.57
2019-01-20T12:52:59.549Z,4.93
2019-01-20T12:55:28.425Z,4.73
2019-01-20T12:57:56.989Z,5.67
2019-01-20T13:00:25.296Z,5.13
2019-01-20T13:02:53.717Z,6.13
2019-01-20T13:05:22.214Z,7.90
2019-01-20T13:07:50.536Z,6.60
2019-01-20T13:10:20.357Z,6.90
2019-01-20T13:12:49.021Z,6.63
2019-01-20T13:15:18.943Z,6.30
2019-01-20T13:17:47.549Z,6.13
2019-01-20T13:20:18.326Z,6.37
2019-01-20T13:22:46.789Z,6.43
2019-01-20T13:25:18.063Z,5.83
2019-01-20T13:27:46.436Z,7.70
2019-01-20T13:30:19.769Z,14.03
2019-01-20T13:32:49.376Z,33.80
2019-01-20T13:35:19.518Z,9.60
2019-01-20T13:37:50.207Z,15.37
2019-01-20T13:40:28.314Z,11.87
2019-01-20T13:42:56.725Z,5.80
2019-01-20T13:45:25.353Z,7.87
2019-01-20T13:47:53.964Z,7.30
2019-01-20T13:50:24.093Z,8.37
2019-01-20T13:52:53.558Z,7.37
2019-01-20T13:55:22.086Z,6.27
2019-01-20T13:57:51.166Z,5.87
2019-01-20T14:00:25.335Z,7.00
2019-01-20T14:02:56.102Z,7.90
2019-01-20T14:05:25.612Z,8.20
2019-01-20T14:07:54.156Z,8.57
2019-01-20T14:10:23.888Z,7.70
2019-01-20T14:12:52.528Z,8.07
2019-01-20T14:15:21.067Z,8.07
2019-01-20T14:17:49.608Z,8.10
2019-01-20T14:20:19.947Z,8.43
2019-01-20T14:22:48.849Z,9.00
2019-01-20T14:25:22.247Z,9.30
2019-01-20T14:27:50.801Z,9.90
2019-01-20T14:30:24.795Z,9.33
2019-01-20T14:32:53.765Z,9.73
2019-01-20T14:35:22.845Z,9.10
2019-01-20T14:37:51.621Z,9.30
2019-01-20T14:40:23.899Z,8.63
2019-01-20T14:42:54.044Z,7.37
2019-01-20T14:45:23.085Z,7.83
2019-01-20T14:47:51.665Z,8.17
2019-01-20T14:50:24.817Z,8.13
2019-01-20T14:52:56.286Z,8.43
2019-01-20T14:55:27.715Z,7.87
2019-01-20T14:57:59.102Z,7.40
2019-01-20T15:00:31.730Z,7.30
2019-01-20T15:03:00.879Z,8.80
2019-01-20T15:05:29.502Z,8.40
2019-01-20T15:07:58.047Z,9.80
2019-01-20T15:10:26.673Z,10.83
2019-01-20T15:12:55.313Z,13.20
2019-01-20T15:15:27.893Z,10.90
2019-01-20T15:17:56.421Z,10.70
2019-01-20T15:20:24.985Z,12.07
2019-01-20T15:22:56.182Z,12.00
2019-01-20T15:25:24.750Z,12.73
2019-01-20T15:27:55.934Z,12.03
2019-01-20T15:30:27.264Z,12.73
2019-01-20T15:32:57.037Z,13.60
2019-01-20T15:35:25.645Z,13.93
2019-01-20T15:37:54.282Z,13.27
2019-01-20T15:40:23.141Z,13.53
2019-01-20T15:42:51.914Z,13.50
2019-01-20T15:45:20.865Z,14.10
2019-01-20T15:47:52.427Z,14.73
2019-01-20T15:50:26.691Z,15.97
2019-01-20T15:52:55.623Z,15.27
2019-01-20T15:55:24.297Z,16.43
2019-01-20T15:57:52.793Z,16.47
2019-01-20T16:00:29.334Z,16.37
2019-01-20T16:02:58.097Z,13.37
2019-01-20T16:05:28.300Z,11.40
2019-01-20T16:07:58.085Z,9.00
2019-01-20T16:10:26.454Z,7.53
2019-01-20T16:12:55.552Z,6.87
2019-01-20T16:15:29.097Z,8.05
2019-01-20T16:17:58.778Z,7.80
2019-01-20T16:20:30.785Z,6.10
2019-01-20T16:22:59.821Z,5.83
2019-01-20T16:25:30.201Z,6.97
2019-01-20T16:27:58.748Z,5.73
2019-01-20T16:30:32.545Z,6.90
2019-01-20T16:33:01.111Z,5.73
2019-01-20T16:35:29.581Z,5.20
2019-01-20T16:37:58.996Z,4.53
2019-01-20T16:40:27.609Z,5.40
2019-01-20T16:42:56.254Z,4.90
2019-01-20T16:45:42.148Z,5.07
2019-01-20T16:48:09.774Z,4.07
2019-01-20T16:50:38.533Z,4.90
2019-01-20T16:53:06.885Z,4.57
2019-01-20T16:55:35.545Z,4.75
2019-01-20T16:58:04.713Z,4.07
2019-01-20T17:00:35.406Z,7.23
2019-01-20T17:03:03.965Z,5.60
2019-01-20T17:05:32.578Z,5.70
2019-01-20T17:08:01.171Z,6.60
2019-01-20T17:10:31.923Z,8.03
2019-01-20T17:13:00.637Z,7.13
2019-01-20T17:15:39.454Z,8.23
2019-01-20T17:18:06.764Z,10.67
2019-01-20T17:20:37.553Z,11.13
2019-01-20T17:23:06.435Z,8.50
2019-01-20T17:25:35.031Z,8.80
2019-01-20T17:28:05.357Z,8.13
2019-01-20T17:30:34.024Z,7.63
2019-01-20T17:33:02.900Z,8.10
2019-01-20T17:35:31.437Z,9.43
2019-01-20T17:38:00.053Z,10.20
2019-01-20T17:40:29.223Z,10.13
2019-01-20T17:42:58.068Z,9.40
2019-01-20T17:45:31.747Z,8.83
2019-01-20T17:48:00.454Z,9.30
2019-01-20T17:50:31.221Z,8.13
2019-01-20T17:53:00.004Z,8.83
2019-01-20T17:55:28.693Z,9.37
2019-01-20T17:57:57.261Z,8.40
2019-01-20T18:00:32.378Z,9.23
2019-01-20T18:03:01.456Z,9.80
2019-01-20T18:05:30.036Z,10.80
2019-01-20T18:07:58.555Z,10.47
2019-01-20T18:10:27.038Z,11.33
2019-01-20T18:12:55.642Z,12.03
2019-01-20T18:15:24.229Z,20.10
2019-01-20T18:17:52.744Z,24.67
2019-01-20T18:20:23.163Z,29.87
2019-01-20T18:22:51.631Z,28.43
2019-01-20T18:25:20.197Z,29.67
2019-01-20T18:27:48.853Z,29.67
2019-01-20T18:30:20.272Z,26.13
2019-01-20T18:32:48.948Z,25.90
2019-01-20T18:35:18.677Z,26.30
2019-01-20T18:37:47.397Z,22.67
2019-01-20T18:40:17.333Z,21.20
2019-01-20T18:42:45.857Z,23.30
2019-01-20T18:45:16.552Z,21.93
2019-01-20T18:47:45.153Z,24.93
2019-01-20T18:50:16.284Z,26.40
2019-01-20T18:52:44.839Z,21.90
2019-01-20T18:55:13.842Z,21.07
2019-01-20T18:57:42.411Z,20.20
2019-01-20T19:00:22.320Z,18.93
2019-01-20T19:02:50.864Z,16.10
2019-01-20T19:05:19.541Z,16.03
2019-01-20T19:07:48.052Z,17.23
2019-01-20T19:10:18.113Z,18.20
2019-01-20T19:12:46.802Z,17.83
2019-01-20T19:15:16.630Z,16.50
2019-01-20T19:17:45.268Z,19.43
2019-01-20T19:20:16.473Z,20.43
2019-01-20T19:22:45.501Z,19.37
2019-01-20T19:25:14.629Z,22.17
2019-01-20T19:27:43.041Z,20.03
2019-01-20T19:30:17.459Z,22.13
2019-01-20T19:32:45.847Z,19.97
2019-01-20T19:35:15.005Z,19.07
2019-01-20T19:37:43.405Z,16.43
2019-01-20T19:40:12.516Z,15.40
2019-01-20T19:42:41.126Z,14.83
2019-01-20T19:45:13.861Z,14.67
2019-01-20T19:47:42.193Z,15.70
2019-01-20T19:50:11.405Z,15.83
2019-01-20T19:52:39.918Z,14.97
2019-01-20T19:55:11.458Z,15.07
2019-01-20T19:57:39.888Z,15.83
2019-01-20T20:00:11.237Z,16.03
2019-01-20T20:02:40.091Z,16.83
2019-01-20T20:05:12.095Z,16.87
2019-01-20T20:07:40.669Z,16.03
2019-01-20T20:10:10.705Z,15.47
2019-01-20T20:12:39.140Z,15.17
2019-01-20T20:15:10.668Z,13.17
2019-01-20T20:17:39.195Z,12.07
2019-01-20T20:20:09.478Z,12.37
2019-01-20T20:22:38.133Z,16.77
2019-01-20T20:25:07.784Z,14.33
2019-01-20T20:27:36.389Z,10.67
2019-01-20T20:30:09.637Z,17.40
2019-01-20T20:32:38.051Z,12.83
2019-01-20T20:35:07.297Z,12.53
2019-01-20T20:37:35.804Z,15.03
2019-01-20T20:40:05.510Z,13.63
2019-01-20T20:42:34.390Z,12.93
2019-01-20T20:45:02.858Z,12.17
2019-01-20T20:47:31.348Z,13.07
2019-01-20T20:50:00.585Z,12.80
2019-01-20T20:52:29.494Z,14.47
2019-01-20T20:54:58.058Z,10.77
2019-01-20T20:57:26.564Z,7.87
2019-01-20T20:59:56.087Z,8.43
2019-01-20T21:02:24.474Z,8.68
2019-01-20T21:04:52.944Z,7.80
2019-01-20T21:07:21.457Z,7.67
2019-01-20T21:09:56.315Z,6.57
2019-01-20T21:12:20.237Z,6.43
2019-01-20T21:14:48.752Z,7.83
2019-01-20T21:17:17.086Z,7.60
2019-01-20T21:19:45.631Z,6.67
2019-01-20T21:22:13.970Z,5.70
2019-01-20T21:24:42.431Z,5.90
2019-01-20T21:27:10.850Z,5.40
2019-01-20T21:29:39.241Z,5.20
2019-01-20T21:32:07.722Z,4.57
2019-01-20T21:34:36.325Z,4.87
2019-01-20T21:37:04.733Z,5.73
2019-01-20T21:39:33.172Z,5.90
2019-01-20T21:42:01.691Z,6.43
2019-01-20T21:44:30.171Z,5.80
2019-01-20T21:46:58.958Z,5.37
2019-01-20T21:49:28.358Z,4.00
2019-01-20T21:51:57.006Z,3.27
2019-01-20T21:54:25.465Z,3.70
2019-01-20T21:56:54.011Z,2.77
2019-01-20T21:59:22.490Z,2.63
2019-01-20T22:01:50.839Z,3.30
2019-01-20T22:04:19.386Z,3.15
2019-01-20T22:06:49.801Z,3.30
2019-01-20T22:09:19.223Z,3.93
2019-01-20T22:11:48.278Z,4.50
2019-01-20T22:14:16.742Z,4.37
2019-01-20T22:16:52.737Z,4.33
2019-01-20T22:19:18.966Z,4.63
2019-01-20T22:21:47.317Z,4.87
2019-01-20T22:24:15.778Z,5.70
2019-01-20T22:26:44.290Z,6.30
2019-01-20T22:29:12.809Z,5.50
2019-01-20T22:31:41.369Z,6.33
2019-01-20T22:34:10.569Z,6.20
2019-01-20T22:36:38.942Z,6.10
2019-01-20T22:39:08.250Z,6.53
2019-01-20T22:41:37.465Z,5.83
2019-01-20T22:44:06.098Z,6.63
2019-01-20T22:46:34.601Z,6.30
2019-01-20T22:49:03.028Z,6.03
2019-01-20T22:51:31.501Z,6.07
2019-01-20T22:53:59.917Z,6.50
2019-01-20T22:56:28.395Z,5.47
2019-01-20T22:58:56.706Z,5.50
2019-01-20T23:01:26.181Z,5.10
2019-01-20T23:03:54.504Z,4.60
2019-01-20T23:06:22.992Z,4.80
2019-01-20T23:08:52.189Z,5.23
2019-01-20T23:11:20.625Z,5.93
2019-01-20T23:13:49.088Z,5.47
2019-01-20T23:16:17.593Z,6.10
2019-01-20T23:18:45.915Z,5.50
2019-01-20T23:21:14.514Z,4.90
2019-01-20T23:23:42.821Z,3.93
2019-01-20T23:26:11.339Z,3.63
2019-01-20T23:28:39.674Z,3.70
2019-01-20T23:31:08.288Z,3.60
2019-01-20T23:33:36.700Z,3.10
2019-01-20T23:36:05.249Z,2.73
2019-01-20T23:38:33.852Z,3.30
2019-01-20T23:41:02.394Z,3.30
2019-01-20T23:43:30.885Z,3.50
2019-01-20T23:46:03.373Z,3.70
2019-01-20T23:48:31.776Z,3.83
2019-01-20T23:51:00.154Z,3.73
2019-01-20T23:53:28.580Z,3.97
2019-01-20T23:55:56.866Z,4.73
2019-01-20T23:58:25.349Z,4.57
